Hayden, Arizona
Current Conditions -  °F | °C
As of 5:15 AM on Sunday 23 Nov 2014 (Local Time) from KAVQ Reporting Station
Clear Clear  
Wind Chill: 46°   Ceiling: Unl
Heat Index: 46°   Visibility: 10mi
Dew Point: 28°   Wind: 0mph
Humidity: 48%   Direction: NA
Pressure: 29.97"   Gusts: NA
Location:  33°N, 110.79°W
Report Text: KAVQ 231215Z AUTO 00000KT 10SM CLR 08/M02 A2997 RMK AO2 T00801024
Loading
Personal Weather Stations






























Interactive Weather Map New forecast layout! Learn more

10-Day Weather Forecast

Advertisements
Track Severe Weather on mobile